Terminal Aerodrome Forecast
Issued by NWS Bismarck, ND

Home | Current Version | Previous Version | Text Only | Print | Product List | Glossary On
Versions: 1 2 3 4 5 6 7 8 9 10 11 12 13 14 15 16 17 18 19 20 21 22
000
FTUS43 KBIS 271300 AAA
TAFISN
TAF AMD
KISN 271335Z 2714/2812 00000KT P6SM OVC080
     FM271500 14010KT 2SM -SN OVC012
     FM272100 15008KT 5SM -FZRASG OVC015
     FM280100 18008KT P6SM SCT015 BKN030 OVC070=

USA.gov is the U.S. government's official web portal to all federal, state and local government web resources and services.